HMS Portugal — V2NA6 — position and weather

sailwx.info

Track history (hours):
 
Tides and Currents Weather Stations Pressure Air Temp Water Temp Dewpoint Dewpoint Depression Visibility Wind Speed Wind Dir Waves Ship Positions

HMS Portugal

Last reported at 2018-Jun-22 04:17 UTC. Time now 2018-Jun-23 23:46 UTC.
Position N 25°27' W 079°43'.

Length 100 m; draft 6.2 m.

Type: Cargo ship. MMSI: 203640704.

Date/timePositionNaut miles runAvg speedWind from/ knotsBaromVisibWave heightAir tempDewpointWater temp
2018-Jun-22 04:17N 25°27' W 079°43'310.8
2018-Jun-22 04:01N 25°29' W 079°45'510.5
2018-Jun-22 03:31N 25°33' W 079°49'510.1
2018-Jun-22 03:01N 25°37' W 079°53'510.3
2018-Jun-22 02:31N 25°41' W 079°56'611.0
2018-Jun-22 02:01N 25°45' W 080°01'510.6
2018-Jun-22 01:30N 25°45' W 080°07'2 4.3
2018-Jun-22 01:00N 25°46' W 080°09'0 0.0
2018-Jun-22 00:30N 25°46' W 080°09'0 0.0
2018-Jun-22 00:00N 25°46' W 080°09'0 0.0
2018-Jun-21 23:30N 25°46' W 080°09'0 0.0
2018-Jun-21 23:00N 25°46' W 080°09'0 0.0
2018-Jun-21 22:30N 25°46' W 080°09'0 0.0
2018-Jun-21 22:00N 25°46' W 080°09'0 0.0
2018-Jun-21 21:30N 25°46' W 080°09'0 0.0
2018-Jun-21 21:00N 25°46' W 080°09'0 0.0
2018-Jun-21 20:30N 25°46' W 080°09'0 0.0
2018-Jun-21 20:00N 25°46' W 080°09'0 0.0
2018-Jun-21 19:30N 25°46' W 080°09'0 0.0
2018-Jun-21 19:00N 25°46' W 080°09'0 0.0
2018-Jun-21 18:30N 25°46' W 080°09'0 0.0
2018-Jun-21 18:00N 25°46' W 080°09'0 0.0
2018-Jun-21 17:21N 25°46' W 080°09'0 0.0
2018-Jun-21 17:00N 25°46' W 080°09'3 5.8
2018-Jun-21 16:30N 25°46' W 080°06'4 8.1
2018-Jun-21 16:00N 25°46' W 080°01'2 4.2
2018-Jun-21 15:30N 25°48' W 079°59'3 6.7
2018-Jun-21 15:00N 25°44' W 079°59'0 0.6
2018-Jun-21 14:30N 25°44' W 079°60'2 3.7
2018-Jun-21 14:00N 25°46' W 079°60'2 3.6
2018-Jun-21 13:30N 25°48' W 080°00'2 3.6
2018-Jun-21 13:00N 25°50' W 080°00'2 3.5
2018-Jun-21 12:30N 25°51' W 080°01'2 3.7
2018-Jun-21 12:00N 25°53' W 080°01'2 3.9
2018-Jun-21 11:30N 25°55' W 080°00'2 3.6
2018-Jun-21 11:00N 25°57' W 079°60'2 3.5
2018-Jun-21 10:30N 25°58' W 079°60'2 3.6
2018-Jun-21 10:00N 26°00' W 079°60'2 3.7
2018-Jun-21 09:30N 26°02' W 079°59'2 4.3
2018-Jun-21 09:00N 26°04' W 079°59'2 4.3
2018-Jun-21 08:30N 26°06' W 079°59'2 4.4
2018-Jun-21 08:00N 26°09' W 079°58'2 3.9
2018-Jun-21 07:30N 26°10' W 079°58'2 3.5
2018-Jun-21 07:00N 26°12' W 079°58'2 3.6
2018-Jun-21 06:30N 26°14' W 079°58'2 3.9
2018-Jun-21 06:00N 26°16' W 079°58'2 4.0
2018-Jun-21 05:30N 26°18' W 079°57'2 3.9
2018-Jun-21 05:00N 26°20' W 079°57'2 3.8
2018-Jun-21 04:30N 26°22' W 079°57'2 3.7
2018-Jun-21 04:00N 26°24' W 079°56'2 3.6
2018-Jun-21 03:30N 26°25' W 079°56'2 3.5
2018-Jun-21 03:00N 26°27' W 079°56'18 3.3
2018-Jun-20 21:25N 26°45' W 079°60'1 3.5
2018-Jun-20 21:01N 26°46' W 080°01'2 3.3
2018-Jun-20 20:29N 26°46' W 080°03'0 0.0
2018-Jun-20 19:50N 26°46' W 080°03'0 0.0
2018-Jun-20 19:29N 26°46' W 080°03'0 0.0
2018-Jun-20 18:59N 26°46' W 080°03'0 0.0
2018-Jun-20 18:23N 26°46' W 080°03'0 0.0
2018-Jun-20 17:59N 26°46' W 080°03'0 0.0
2018-Jun-20 17:11N 26°46' W 080°03'0 0.0
2018-Jun-20 16:38N 26°46' W 080°03'0 0.0
2018-Jun-20 16:26N 26°46' W 080°03'0 0.0
2018-Jun-20 15:56N 26°46' W 080°03'0 0.0
2018-Jun-20 15:29N 26°46' W 080°03'0 0.2
2018-Jun-20 14:47N 26°46' W 080°03'2 6.8
2018-Jun-20 14:29N 26°46' W 080°01'2715.7
2018-Jun-20 12:45N 26°23' W 079°45'416.1
2018-Jun-20 12:30N 26°20' W 079°42'815.9
2018-Jun-20 12:00N 26°13' W 079°38'1015.3
2018-Jun-20 11:23N 26°04' W 079°36'616.0
2018-Jun-20 11:00N 25°57' W 079°36'815.9
2018-Jun-20 10:30N 25°50' W 079°36'816.3
2018-Jun-20 10:00N 25°41' W 079°36'816.4
2018-Jun-20 09:30N 25°33' W 079°36'  
2018-Jun-15 06:08N 25°35' W 079°36'210.6
2018-Jun-15 05:59N 25°36' W 079°36'510.5
2018-Jun-15 05:30N 25°41' W 079°36'510.4
2018-Jun-15 05:00N 25°46' W 079°36'510.3
2018-Jun-15 04:30N 25°52' W 079°35'510.3
2018-Jun-15 04:00N 25°57' W 079°35'510.3
2018-Jun-15 03:30N 26°02' W 079°35'510.3
2018-Jun-15 03:00N 26°07' W 079°35'510.2
2018-Jun-15 02:30N 26°12' W 079°37'510.5
2018-Jun-15 02:00N 26°17' W 079°40'510.1
2018-Jun-15 01:30N 26°21' W 079°43'5 9.7
2018-Jun-15 01:00N 26°25' W 079°46'2410.5
2018-Jun-14 22:43N 26°45' W 079°60'2 8.5
2018-Jun-14 22:30N 26°46' W 080°02'1 0.0
2018-Jun-13 21:28N 26°46' W 080°03'2 4.6
2018-Jun-13 21:01N 26°46' W 080°01'19 7.8
2018-Jun-13 18:33N 26°30' W 079°49'1 7.9
2018-Jun-13 18:24N 26°29' W 079°48'3 7.8
2018-Jun-13 18:00N 26°27' W 079°46'4 7.5
2018-Jun-13 17:26N 26°23' W 079°44'3 7.4
2018-Jun-13 16:59N 26°20' W 079°42'4 7.3
2018-Jun-13 16:28N 26°17' W 079°40'3 7.2
2018-Jun-13 16:00N 26°14' W 079°38'4 7.3
2018-Jun-13 15:30N 26°11' W 079°36'5 9.3
2018-Jun-13 15:00N 26°06' W 079°35'5 9.6
2018-Jun-13 14:30N 26°02' W 079°36'5 9.5
2018-Jun-13 14:00N 25°57' W 079°36'5 9.5
2018-Jun-13 13:28N 25°52' W 079°36'4 9.3
2018-Jun-13 13:00N 25°47' W 079°36'5 9.2
2018-Jun-13 12:30N 25°43' W 079°35'5 9.2
2018-Jun-13 12:00N 25°38' W 079°35'5 9.1
2018-Jun-13 11:29N 25°34' W 079°36'4 9.0
2018-Jun-13 11:00N 25°29' W 079°36'  
Track history (hours):
 
Tides and Currents Weather Stations Pressure Air Temp Water Temp Dewpoint Dewpoint Depression Visibility Wind Speed Wind Dir Waves Ship Positions

HMS Portugal

Last reported at 2018-Jun-22 04:17 UTC. Time now 2018-Jun-23 23:46 UTC.
Position N 25°27' W 079°43'.

Length 100 m; draft 6.2 m.

Type: Cargo ship. MMSI: 203640704.

Date/timePositionNaut miles runAvg speedWind from/ knotsBaromVisibWave heightAir tempDewpointWater temp
2018-Jun-22 04:17N 25°27' W 079°43'310.8
2018-Jun-22 04:01N 25°29' W 079°45'510.5
2018-Jun-22 03:31N 25°33' W 079°49'510.1
2018-Jun-22 03:01N 25°37' W 079°53'510.3
2018-Jun-22 02:31N 25°41' W 079°56'611.0
2018-Jun-22 02:01N 25°45' W 080°01'510.6
2018-Jun-22 01:30N 25°45' W 080°07'2 4.3
2018-Jun-22 01:00N 25°46' W 080°09'0 0.0
2018-Jun-22 00:30N 25°46' W 080°09'0 0.0
2018-Jun-22 00:00N 25°46' W 080°09'0 0.0
2018-Jun-21 23:30N 25°46' W 080°09'0 0.0
2018-Jun-21 23:00N 25°46' W 080°09'0 0.0
2018-Jun-21 22:30N 25°46' W 080°09'0 0.0
2018-Jun-21 22:00N 25°46' W 080°09'0 0.0
2018-Jun-21 21:30N 25°46' W 080°09'0 0.0
2018-Jun-21 21:00N 25°46' W 080°09'0 0.0
2018-Jun-21 20:30N 25°46' W 080°09'0 0.0
2018-Jun-21 20:00N 25°46' W 080°09'0 0.0
2018-Jun-21 19:30N 25°46' W 080°09'0 0.0
2018-Jun-21 19:00N 25°46' W 080°09'0 0.0
2018-Jun-21 18:30N 25°46' W 080°09'0 0.0
2018-Jun-21 18:00N 25°46' W 080°09'0 0.0
2018-Jun-21 17:21N 25°46' W 080°09'0 0.0
2018-Jun-21 17:00N 25°46' W 080°09'3 5.8
2018-Jun-21 16:30N 25°46' W 080°06'4 8.1
2018-Jun-21 16:00N 25°46' W 080°01'2 4.2
2018-Jun-21 15:30N 25°48' W 079°59'3 6.7
2018-Jun-21 15:00N 25°44' W 079°59'0 0.6
2018-Jun-21 14:30N 25°44' W 079°60'2 3.7
2018-Jun-21 14:00N 25°46' W 079°60'2 3.6
2018-Jun-21 13:30N 25°48' W 080°00'2 3.6
2018-Jun-21 13:00N 25°50' W 080°00'2 3.5
2018-Jun-21 12:30N 25°51' W 080°01'2 3.7
2018-Jun-21 12:00N 25°53' W 080°01'2 3.9
2018-Jun-21 11:30N 25°55' W 080°00'2 3.6
2018-Jun-21 11:00N 25°57' W 079°60'2 3.5
2018-Jun-21 10:30N 25°58' W 079°60'2 3.6
2018-Jun-21 10:00N 26°00' W 079°60'2 3.7
2018-Jun-21 09:30N 26°02' W 079°59'2 4.3
2018-Jun-21 09:00N 26°04' W 079°59'2 4.3
2018-Jun-21 08:30N 26°06' W 079°59'2 4.4
2018-Jun-21 08:00N 26°09' W 079°58'2 3.9
2018-Jun-21 07:30N 26°10' W 079°58'2 3.5
2018-Jun-21 07:00N 26°12' W 079°58'2 3.6
2018-Jun-21 06:30N 26°14' W 079°58'2 3.9
2018-Jun-21 06:00N 26°16' W 079°58'2 4.0
2018-Jun-21 05:30N 26°18' W 079°57'2 3.9
2018-Jun-21 05:00N 26°20' W 079°57'2 3.8
2018-Jun-21 04:30N 26°22' W 079°57'2 3.7
2018-Jun-21 04:00N 26°24' W 079°56'2 3.6
2018-Jun-21 03:30N 26°25' W 079°56'2 3.5
2018-Jun-21 03:00N 26°27' W 079°56'18 3.3
2018-Jun-20 21:25N 26°45' W 079°60'1 3.5
2018-Jun-20 21:01N 26°46' W 080°01'2 3.3
2018-Jun-20 20:29N 26°46' W 080°03'0 0.0
2018-Jun-20 19:50N 26°46' W 080°03'0 0.0
2018-Jun-20 19:29N 26°46' W 080°03'0 0.0
2018-Jun-20 18:59N 26°46' W 080°03'0 0.0
2018-Jun-20 18:23N 26°46' W 080°03'0 0.0
2018-Jun-20 17:59N 26°46' W 080°03'0 0.0
2018-Jun-20 17:11N 26°46' W 080°03'0 0.0
2018-Jun-20 16:38N 26°46' W 080°03'0 0.0
2018-Jun-20 16:26N 26°46' W 080°03'0 0.0
2018-Jun-20 15:56N 26°46' W 080°03'0 0.0
2018-Jun-20 15:29N 26°46' W 080°03'0 0.2
2018-Jun-20 14:47N 26°46' W 080°03'2 6.8
2018-Jun-20 14:29N 26°46' W 080°01'2715.7
2018-Jun-20 12:45N 26°23' W 079°45'416.1
2018-Jun-20 12:30N 26°20' W 079°42'815.9
2018-Jun-20 12:00N 26°13' W 079°38'1015.3
2018-Jun-20 11:23N 26°04' W 079°36'616.0
2018-Jun-20 11:00N 25°57' W 079°36'815.9
2018-Jun-20 10:30N 25°50' W 079°36'816.3
2018-Jun-20 10:00N 25°41' W 079°36'816.4
2018-Jun-20 09:30N 25°33' W 079°36'  
2018-Jun-15 06:08N 25°35' W 079°36'210.6
2018-Jun-15 05:59N 25°36' W 079°36'510.5
2018-Jun-15 05:30N 25°41' W 079°36'510.4
2018-Jun-15 05:00N 25°46' W 079°36'510.3
2018-Jun-15 04:30N 25°52' W 079°35'510.3
2018-Jun-15 04:00N 25°57' W 079°35'510.3
2018-Jun-15 03:30N 26°02' W 079°35'510.3
2018-Jun-15 03:00N 26°07' W 079°35'510.2
2018-Jun-15 02:30N 26°12' W 079°37'510.5
2018-Jun-15 02:00N 26°17' W 079°40'510.1
2018-Jun-15 01:30N 26°21' W 079°43'5 9.7
2018-Jun-15 01:00N 26°25' W 079°46'2410.5
2018-Jun-14 22:43N 26°45' W 079°60'2 8.5
2018-Jun-14 22:30N 26°46' W 080°02'1 0.0
2018-Jun-13 21:28N 26°46' W 080°03'2 4.6
2018-Jun-13 21:01N 26°46' W 080°01'19 7.8
2018-Jun-13 18:33N 26°30' W 079°49'1 7.9
2018-Jun-13 18:24N 26°29' W 079°48'3 7.8
2018-Jun-13 18:00N 26°27' W 079°46'4 7.5
2018-Jun-13 17:26N 26°23' W 079°44'3 7.4
2018-Jun-13 16:59N 26°20' W 079°42'4 7.3
2018-Jun-13 16:28N 26°17' W 079°40'3 7.2
2018-Jun-13 16:00N 26°14' W 079°38'4 7.3
2018-Jun-13 15:30N 26°11' W 079°36'5 9.3
2018-Jun-13 15:00N 26°06' W 079°35'5 9.6
2018-Jun-13 14:30N 26°02' W 079°36'5 9.5
2018-Jun-13 14:00N 25°57' W 079°36'5 9.5
2018-Jun-13 13:28N 25°52' W 079°36'4 9.3
2018-Jun-13 13:00N 25°47' W 079°36'5 9.2
2018-Jun-13 12:30N 25°43' W 079°35'5 9.2
2018-Jun-13 12:00N 25°38' W 079°35'5 9.1
2018-Jun-13 11:29N 25°34' W 079°36'4 9.0
2018-Jun-13 11:00N 25°29' W 079°36'  

Dump ship's entire track history